createdAt,value
2022-12-20T00:02:13.191Z,101245.25
2022-12-20T00:04:41.192Z,101248.66
2022-12-20T00:07:09.262Z,101248.19
2022-12-20T00:09:37.619Z,101239.28
2022-12-20T00:12:05.899Z,101243.13
2022-12-20T00:14:33.795Z,101243.50
2022-12-20T00:17:01.734Z,101242.56
2022-12-20T00:19:31.012Z,101248.13
2022-12-20T00:21:58.941Z,101244.00
2022-12-20T00:24:26.876Z,101246.13
2022-12-20T00:26:54.838Z,101252.25
2022-12-20T00:29:22.824Z,101246.75
2022-12-20T00:31:50.799Z,101239.00
2022-12-20T00:34:18.825Z,101230.59
2022-12-20T00:36:48.124Z,101234.75
2022-12-20T00:39:16.021Z,101237.94
2022-12-20T00:41:44.114Z,101229.66
2022-12-20T00:44:12.001Z,101221.84
2022-12-20T00:46:40.015Z,101236.69
2022-12-20T00:49:08.377Z,101226.47
2022-12-20T00:51:36.289Z,101229.84
2022-12-20T00:54:05.833Z,101223.03
2022-12-20T00:56:33.945Z,101226.06
2022-12-20T00:59:01.906Z,101218.91
2022-12-20T01:01:31.857Z,101222.91
2022-12-20T01:04:00.262Z,101217.28
2022-12-20T01:06:28.645Z,101232.09
2022-12-20T01:08:56.781Z,101227.00
2022-12-20T01:11:27.254Z,101223.97
2022-12-20T01:13:56.934Z,101228.50
2022-12-20T01:16:26.716Z,101233.22
2022-12-20T01:18:55.264Z,101243.50
2022-12-20T01:21:25.254Z,101232.69
2022-12-20T01:23:53.423Z,101238.19
2022-12-20T01:26:23.288Z,101240.06
2022-12-20T01:28:54.974Z,101228.66
2022-12-20T01:31:23.720Z,101237.34
2022-12-20T01:33:52.409Z,101230.56
2022-12-20T01:36:22.788Z,101229.50
2022-12-20T01:38:50.725Z,101227.47
2022-12-20T01:41:20.112Z,101227.00
2022-12-20T01:43:52.801Z,101226.66
2022-12-20T01:46:22.443Z,101228.41
2022-12-20T01:48:55.466Z,101226.00
2022-12-20T01:51:24.623Z,101219.84
2022-12-20T01:53:56.608Z,101216.53
2022-12-20T01:56:24.591Z,101220.16
2022-12-20T01:58:55.094Z,101217.13
2022-12-20T02:01:23.859Z,101220.09
2022-12-20T02:03:52.801Z,101211.72
2022-12-20T02:06:22.179Z,101217.94
2022-12-20T02:08:51.480Z,101220.00
2022-12-20T02:11:30.540Z,101214.47
2022-12-20T02:14:08.636Z,101215.78
2022-12-20T02:16:43.162Z,101207.03
2022-12-20T02:19:22.057Z,101211.94
2022-12-20T02:21:54.661Z,101217.13
2022-12-20T02:24:51.863Z,101199.53
2022-12-20T02:27:45.272Z,101205.75
2022-12-20T02:30:16.856Z,101195.28
2022-12-20T02:32:59.203Z,101194.94
2022-12-20T02:35:29.335Z,101193.16
2022-12-20T02:37:59.980Z,101200.84
2022-12-20T02:40:30.127Z,101197.81
2022-12-20T02:43:00.888Z,101182.25
2022-12-20T02:45:34.015Z,101195.88
2022-12-20T02:48:04.840Z,101193.50
2022-12-20T02:50:35.850Z,101189.91
2022-12-20T02:53:04.114Z,101185.31
2022-12-20T02:55:38.657Z,101180.94
2022-12-20T02:58:08.257Z,101179.50
2022-12-20T03:00:41.540Z,101181.16
2022-12-20T03:03:25.845Z,101188.78
2022-12-20T03:05:55.342Z,101191.72
2022-12-20T03:08:24.335Z,101191.53
2022-12-20T03:10:53.347Z,101185.78
2022-12-20T03:13:21.715Z,101184.41
2022-12-20T03:15:51.190Z,101184.09
2022-12-20T03:18:19.188Z,101179.38
2022-12-20T03:20:47.132Z,101186.47
2022-12-20T03:23:15.125Z,101187.56
2022-12-20T03:25:43.021Z,101185.28
2022-12-20T03:28:11.099Z,101199.53
2022-12-20T03:30:39.121Z,101198.38
2022-12-20T03:33:08.600Z,101197.84
2022-12-20T03:35:36.519Z,101188.22
2022-12-20T03:38:04.546Z,101198.50
2022-12-20T03:40:32.653Z,101172.38
2022-12-20T03:43:00.571Z,101174.31
2022-12-20T03:45:28.500Z,101189.34
2022-12-20T03:47:56.434Z,101179.38
2022-12-20T03:50:25.751Z,101184.34
2022-12-20T03:52:53.672Z,101197.72
2022-12-20T03:55:21.589Z,101190.91
2022-12-20T03:57:49.504Z,101179.94
2022-12-20T04:00:18.629Z,101181.13
2022-12-20T04:02:46.705Z,101181.19
2022-12-20T04:05:14.795Z,101169.47
2022-12-20T04:07:45.419Z,101172.47
2022-12-20T04:10:13.558Z,101176.00
2022-12-20T04:12:41.486Z,101179.78
2022-12-20T04:15:10.012Z,101179.69
2022-12-20T04:17:37.968Z,101182.06
2022-12-20T04:20:19.163Z,101182.38
2022-12-20T04:22:48.855Z,101174.38
2022-12-20T04:25:18.291Z,101177.00
2022-12-20T04:27:46.381Z,101175.25
2022-12-20T04:30:15.111Z,101177.97
2022-12-20T04:32:43.106Z,101181.84
2022-12-20T04:35:11.335Z,101187.47
2022-12-20T04:37:39.271Z,101189.63
2022-12-20T04:40:10.438Z,101179.38
2022-12-20T04:42:38.364Z,101183.38
2022-12-20T04:45:07.108Z,101186.84
2022-12-20T04:47:35.105Z,101195.13
2022-12-20T04:50:03.052Z,101190.34
2022-12-20T04:52:48.554Z,101198.34
2022-12-20T04:55:18.344Z,101195.97
2022-12-20T04:57:46.415Z,101199.19
2022-12-20T05:00:15.844Z,101201.88
2022-12-20T05:02:44.010Z,101198.22
2022-12-20T05:05:12.075Z,101201.25
2022-12-20T05:07:39.952Z,101209.31
2022-12-20T05:10:08.738Z,101208.03
2022-12-20T05:12:38.133Z,101203.81
2022-12-20T05:15:07.515Z,101198.81
2022-12-20T05:17:35.538Z,101198.59
2022-12-20T05:20:03.685Z,101202.03
2022-12-20T05:22:48.829Z,101201.84
2022-12-20T05:25:34.238Z,101211.16
2022-12-20T05:28:03.617Z,101198.53
2022-12-20T05:30:31.583Z,101208.97
2022-12-20T05:32:59.499Z,101210.16
2022-12-20T05:35:27.441Z,101205.41
2022-12-20T05:37:55.539Z,101218.03
2022-12-20T05:40:23.502Z,101217.44
2022-12-20T05:42:51.451Z,101219.25
2022-12-20T05:45:20.743Z,101216.16
2022-12-20T05:47:49.199Z,101215.50
2022-12-20T05:50:19.189Z,101227.03
2022-12-20T05:52:47.327Z,101216.25
2022-12-20T05:55:15.418Z,101221.28
2022-12-20T05:57:43.377Z,101216.88
2022-12-20T06:00:13.336Z,101225.06
2022-12-20T06:02:42.786Z,101224.66
2022-12-20T06:05:11.141Z,101233.59
2022-12-20T06:07:39.109Z,101227.34
2022-12-20T06:10:08.378Z,101227.22
2022-12-20T06:12:36.324Z,101240.22
2022-12-20T06:15:04.364Z,101236.00
2022-12-20T06:17:32.523Z,101237.97
2022-12-20T06:20:01.895Z,101247.38
2022-12-20T06:22:29.832Z,101247.28
2022-12-20T06:24:57.718Z,101239.78
2022-12-20T06:27:25.790Z,101235.59
2022-12-20T06:29:54.586Z,101254.06
2022-12-20T06:32:22.757Z,101257.88
2022-12-20T06:34:51.702Z,101254.91
2022-12-20T06:37:21.056Z,101257.00
2022-12-20T06:39:48.980Z,101255.56
2022-12-20T06:42:17.084Z,101254.06
2022-12-20T06:44:44.983Z,101249.22
2022-12-20T06:47:13.902Z,101260.75
2022-12-20T06:49:41.988Z,101267.91
2022-12-20T06:52:10.053Z,101264.53
2022-12-20T06:54:39.516Z,101271.56
2022-12-20T06:57:08.004Z,101269.06
2022-12-20T06:59:36.325Z,101263.66
2022-12-20T07:02:05.070Z,101251.13
2022-12-20T07:04:33.481Z,101256.50
2022-12-20T07:07:01.435Z,101255.38
2022-12-20T07:09:29.935Z,101249.09
2022-12-20T07:11:59.930Z,101252.69
2022-12-20T07:14:28.055Z,101252.13
2022-12-20T07:16:56.084Z,101237.16
2022-12-20T07:19:24.075Z,101236.44
2022-12-20T07:21:54.139Z,101245.59
2022-12-20T07:24:22.079Z,101239.25
2022-12-20T07:26:50.018Z,101239.66
2022-12-20T07:29:19.452Z,101243.00
2022-12-20T07:31:47.496Z,101227.44
2022-12-20T07:34:15.491Z,101234.59
2022-12-20T07:36:43.736Z,101252.41
2022-12-20T07:39:11.724Z,101253.88
2022-12-20T07:41:39.687Z,101259.44
2022-12-20T07:44:07.861Z,101255.00
2022-12-20T07:46:37.263Z,101247.44
2022-12-20T07:49:05.773Z,101243.31
2022-12-20T07:51:37.880Z,101242.78
2022-12-20T07:54:10.584Z,101241.25
2022-12-20T07:56:41.717Z,101246.31
2022-12-20T07:59:11.223Z,101230.69
2022-12-20T08:01:41.758Z,101248.16
2022-12-20T08:04:12.511Z,101249.34
2022-12-20T08:06:40.767Z,101250.19
2022-12-20T08:09:09.788Z,101255.38
2022-12-20T08:11:38.513Z,101252.06
2022-12-20T08:14:08.321Z,101230.13
2022-12-20T08:16:36.421Z,101237.28
2022-12-20T08:19:06.135Z,101234.91
2022-12-20T08:21:34.398Z,101238.22
2022-12-20T08:24:02.332Z,101230.81
2022-12-20T08:26:30.243Z,101230.06
2022-12-20T08:28:58.182Z,101224.72
2022-12-20T08:31:26.180Z,101232.31
2022-12-20T08:33:56.202Z,101204.34
2022-12-20T08:36:25.566Z,101211.72
2022-12-20T08:38:53.595Z,101208.75
2022-12-20T08:41:21.581Z,101202.31
2022-12-20T08:43:49.629Z,101190.84
2022-12-20T08:46:17.607Z,101188.50
2022-12-20T08:48:48.732Z,101185.22
2022-12-20T08:51:16.822Z,101184.56
2022-12-20T08:53:46.237Z,101181.13
2022-12-20T08:56:15.797Z,101178.06
2022-12-20T08:58:44.663Z,101158.88
2022-12-20T09:01:15.018Z,101158.31
2022-12-20T09:03:43.749Z,101160.34
2022-12-20T09:06:14.639Z,101157.78
2022-12-20T09:08:42.926Z,101162.19
2022-12-20T09:11:13.982Z,101156.22
2022-12-20T09:13:44.419Z,101157.78
2022-12-20T09:16:14.985Z,101161.03
2022-12-20T09:18:43.308Z,101159.47
2022-12-20T09:21:12.307Z,101157.59
2022-12-20T09:23:49.206Z,101157.72
2022-12-20T09:26:19.535Z,101161.81
2022-12-20T09:28:48.612Z,101152.84
2022-12-20T09:31:18.071Z,101142.91
2022-12-20T09:33:46.429Z,101141.00
2022-12-20T09:36:15.594Z,101143.22
2022-12-20T09:38:43.579Z,101148.47
2022-12-20T09:41:25.762Z,101148.31
2022-12-20T09:43:53.798Z,101146.88
2022-12-20T09:46:22.059Z,101157.50
2022-12-20T09:48:50.350Z,101146.44
2022-12-20T09:51:33.452Z,101153.00
2022-12-20T09:54:08.546Z,101151.63
2022-12-20T09:56:39.231Z,101143.88
2022-12-20T09:59:09.516Z,101143.00
2022-12-20T10:01:39.957Z,101146.13
2022-12-20T10:04:13.768Z,101148.91
2022-12-20T10:06:48.674Z,101131.31
2022-12-20T10:09:30.274Z,101140.72
2022-12-20T10:12:13.193Z,101138.09
2022-12-20T10:14:55.622Z,101142.16
2022-12-20T10:17:32.644Z,101142.78
2022-12-20T10:20:21.306Z,101129.16
2022-12-20T10:22:53.373Z,101135.78
2022-12-20T10:25:23.989Z,101124.22
2022-12-20T10:27:57.059Z,101115.91
2022-12-20T10:30:27.994Z,101122.50
2022-12-20T10:32:57.569Z,101110.22
2022-12-20T10:35:29.152Z,101107.72
2022-12-20T10:38:09.798Z,101090.34
2022-12-20T10:41:18.521Z,101088.72
2022-12-20T10:43:29.157Z,101077.75
2022-12-20T10:45:59.363Z,101071.47
2022-12-20T10:48:31.465Z,101063.00
2022-12-20T10:51:04.084Z,101051.13
2022-12-20T10:53:33.353Z,101036.28
2022-12-20T10:56:20.746Z,101042.91
2022-12-20T10:58:58.793Z,101042.19
2022-12-20T11:01:30.742Z,101031.63
2022-12-20T11:04:01.459Z,101023.13
2022-12-20T11:06:41.994Z,101023.13
2022-12-20T11:09:31.196Z,101016.63
2022-12-20T11:12:08.196Z,101011.84
2022-12-20T11:14:39.901Z,101002.84
2022-12-20T11:17:22.604Z,101004.44
2022-12-20T11:20:08.201Z,100978.75
2022-12-20T11:22:46.693Z,100972.00
2022-12-20T11:25:26.591Z,100966.44
2022-12-20T11:28:00.890Z,100970.25
2022-12-20T11:30:34.869Z,100958.81
2022-12-20T11:33:15.842Z,100948.13
2022-12-20T11:35:52.148Z,100933.88
2022-12-20T11:38:29.444Z,100938.03
2022-12-20T11:41:13.229Z,100923.53
2022-12-20T11:44:24.592Z,100918.63
2022-12-20T11:47:03.048Z,100913.59
2022-12-20T11:49:48.651Z,100918.63
2022-12-20T11:52:23.793Z,100916.16
2022-12-20T11:55:00.524Z,100920.47
2022-12-20T11:57:38.346Z,100918.00
2022-12-20T12:00:19.873Z,100912.97
2022-12-20T12:02:58.377Z,100917.00
2022-12-20T12:05:30.915Z,100907.31
2022-12-20T12:08:02.545Z,100919.16
2022-12-20T12:10:33.259Z,100911.88
2022-12-20T12:13:08.375Z,100907.72
2022-12-20T12:15:41.564Z,100906.59
2022-12-20T12:18:16.485Z,100907.47
2022-12-20T12:20:51.034Z,100906.13
2022-12-20T12:23:24.435Z,100897.91
2022-12-20T12:25:53.278Z,100908.97
2022-12-20T12:28:22.177Z,100901.72
2022-12-20T12:30:54.257Z,100909.44
2022-12-20T12:33:26.905Z,100898.88
2022-12-20T12:36:23.911Z,100904.28
2022-12-20T12:39:15.197Z,100917.31
2022-12-20T12:42:17.883Z,100904.41
2022-12-20T12:44:51.264Z,100912.75
2022-12-20T12:47:23.057Z,100906.84
2022-12-20T12:49:54.716Z,100907.34
2022-12-20T12:52:44.718Z,100904.66
2022-12-20T12:55:41.965Z,100898.88
2022-12-20T12:58:35.416Z,100908.59
2022-12-20T13:01:08.277Z,100905.25
2022-12-20T13:03:46.255Z,100909.78
2022-12-20T13:06:52.693Z,100908.69
2022-12-20T13:09:23.897Z,100914.44
2022-12-20T13:12:00.398Z,100915.69
2022-12-20T13:14:51.298Z,100916.41
2022-12-20T13:17:54.089Z,100912.59
2022-12-20T13:20:24.644Z,100929.47
2022-12-20T13:23:17.561Z,100920.09
2022-12-20T13:25:49.816Z,100924.53
2022-12-20T13:28:49.090Z,100931.78
2022-12-20T13:31:37.765Z,100921.81
2022-12-20T13:34:41.352Z,100920.50
2022-12-20T13:37:27.564Z,100933.72
2022-12-20T13:39:58.306Z,100945.03
2022-12-20T13:42:45.706Z,100944.16
2022-12-20T13:45:15.600Z,100957.09
2022-12-20T13:47:52.979Z,100952.38
2022-12-20T13:51:27.909Z,100961.34
2022-12-20T13:54:27.820Z,100969.56
2022-12-20T14:30:49.894Z,100969.09
2022-12-20T14:36:39.102Z,100980.25
2022-12-20T14:39:37.319Z,100975.16
2022-12-20T14:42:58.024Z,100980.72
2022-12-20T14:45:42.337Z,100983.31
2022-12-20T15:03:17.276Z,101008.69
2022-12-20T15:05:50.520Z,101006.13
2022-12-20T15:08:23.259Z,101004.22
2022-12-20T15:11:07.418Z,100990.66
2022-12-20T15:13:46.448Z,100989.28
2022-12-20T15:16:17.493Z,100992.75
2022-12-20T15:18:46.531Z,100997.88
2022-12-20T15:21:29.026Z,100998.63
2022-12-20T15:24:37.301Z,101000.06
2022-12-20T15:34:55.349Z,101010.66
2022-12-20T15:37:23.229Z,101009.56
2022-12-20T15:39:51.137Z,101020.84
2022-12-20T15:42:19.885Z,101019.25
2022-12-20T15:44:48.376Z,101011.88
2022-12-20T15:47:17.340Z,101021.69
2022-12-20T15:49:50.026Z,101008.44
2022-12-20T15:52:22.200Z,101015.31
2022-12-20T15:54:50.583Z,101021.13
2022-12-20T15:57:18.668Z,101021.88
2022-12-20T16:00:03.442Z,101022.91
2022-12-20T16:02:32.751Z,101018.66
2022-12-20T16:05:01.628Z,101024.09
2022-12-20T16:07:31.040Z,101012.84
2022-12-20T16:10:00.453Z,101001.13
2022-12-20T16:12:29.847Z,101006.78
2022-12-20T16:14:57.742Z,101012.31
2022-12-20T16:17:25.724Z,101013.59
2022-12-20T16:19:53.625Z,101003.84
2022-12-20T16:22:23.146Z,101004.44
2022-12-20T16:24:52.865Z,101012.53
2022-12-20T16:27:21.626Z,101006.91
2022-12-20T16:29:49.563Z,101020.88
2022-12-20T16:32:18.482Z,101010.13
2022-12-20T16:34:46.807Z,101008.63
2022-12-20T16:37:14.803Z,101007.41
2022-12-20T16:39:43.057Z,101015.88
2022-12-20T16:42:15.195Z,101012.53
2022-12-20T16:44:45.606Z,101014.03
2022-12-20T16:47:14.963Z,101010.47
2022-12-20T16:49:49.672Z,101009.28
2022-12-20T16:52:20.700Z,101008.00
2022-12-20T16:54:48.666Z,100998.81
2022-12-20T16:57:17.999Z,100997.47
2022-12-20T16:59:45.951Z,100998.66
2022-12-20T17:02:23.456Z,100996.88
2022-12-20T17:04:52.165Z,100991.44
2022-12-20T17:07:20.119Z,100992.72
2022-12-20T17:09:48.033Z,100990.69
2022-12-20T17:12:18.234Z,100988.50
2022-12-20T17:14:46.456Z,100987.63
2022-12-20T17:17:14.383Z,100987.56
2022-12-20T17:19:42.575Z,100985.09
2022-12-20T17:24:57.860Z,100982.16
2022-12-20T17:27:27.154Z,100982.03
2022-12-20T17:29:55.079Z,100979.56
2022-12-20T17:32:24.667Z,100984.84
2022-12-20T17:34:54.336Z,100976.50
2022-12-20T17:37:22.340Z,100983.25
2022-12-20T17:39:50.322Z,100970.22
2022-12-20T17:42:18.327Z,100972.66
2022-12-20T17:44:47.713Z,100977.97
2022-12-20T17:47:17.334Z,100973.66
2022-12-20T17:49:45.340Z,100974.56
2022-12-20T17:52:14.802Z,100975.13
2022-12-20T17:54:42.834Z,100978.72
2022-12-20T17:57:14.469Z,100975.66
2022-12-20T17:59:42.576Z,100979.31
2022-12-20T18:02:21.323Z,100978.34
2022-12-20T18:04:49.496Z,100982.91
2022-12-20T18:07:17.577Z,100975.84
2022-12-20T18:09:47.805Z,100978.09
2022-12-20T18:12:15.931Z,100975.13
2022-12-20T18:14:43.852Z,100973.78
2022-12-20T18:17:12.111Z,100976.63
2022-12-20T18:19:41.475Z,100974.53
2022-12-20T18:22:09.368Z,100990.13
2022-12-20T18:24:37.293Z,100983.38
2022-12-20T18:27:05.171Z,100986.47
2022-12-20T18:29:33.160Z,100986.81
2022-12-20T18:32:01.151Z,100983.75
2022-12-20T18:34:29.180Z,100986.44
2022-12-20T18:36:58.490Z,100980.28
2022-12-20T18:39:26.467Z,100986.53
2022-12-20T18:41:54.392Z,100998.47
2022-12-20T18:44:22.359Z,100985.53
2022-12-20T18:46:50.279Z,100990.34
2022-12-20T18:49:18.211Z,100998.94
2022-12-20T18:51:46.144Z,100997.06
2022-12-20T18:54:15.852Z,100994.25
2022-12-20T18:56:43.899Z,100989.78
2022-12-20T18:59:12.960Z,100981.19
2022-12-20T19:01:42.627Z,100983.06
2022-12-20T19:04:11.825Z,100993.03
2022-12-20T19:06:40.265Z,100980.25
2022-12-20T19:09:09.711Z,100979.84
2022-12-20T19:11:39.208Z,100980.75
2022-12-20T19:14:08.886Z,100978.16
2022-12-20T19:16:39.626Z,100973.28
2022-12-20T19:19:08.331Z,100974.44
2022-12-20T19:21:37.945Z,100976.00
2022-12-20T19:24:08.095Z,100976.81
2022-12-20T19:26:39.097Z,100975.09
2022-12-20T19:29:07.484Z,100980.44
2022-12-20T19:31:37.474Z,100973.84
2022-12-20T19:34:07.603Z,100981.81
2022-12-20T19:36:38.548Z,100978.75
2022-12-20T19:39:08.183Z,100972.25
2022-12-20T19:41:36.640Z,100980.09
2022-12-20T19:44:06.302Z,100984.28
2022-12-20T19:46:34.634Z,100992.50
2022-12-20T19:49:03.423Z,100985.34
2022-12-20T19:51:31.655Z,100989.19
2022-12-20T19:54:00.016Z,100981.31
2022-12-20T19:56:30.262Z,100987.97
2022-12-20T19:58:58.250Z,100976.78
2022-12-20T20:01:28.356Z,100982.41
2022-12-20T20:03:57.507Z,100986.66
2022-12-20T20:06:27.653Z,100988.75
2022-12-20T20:08:57.804Z,100991.19
2022-12-20T20:11:25.891Z,100998.47
2022-12-20T20:13:53.927Z,100996.50
2022-12-20T20:16:23.289Z,101005.75
2022-12-20T20:18:52.781Z,101003.38
2022-12-20T20:21:22.658Z,101003.50
2022-12-20T20:23:51.365Z,100994.03
2022-12-20T20:26:20.861Z,100990.88
2022-12-20T20:28:48.754Z,101003.97
2022-12-20T20:31:17.742Z,100997.47
2022-12-20T20:33:46.187Z,100996.84
2022-12-20T20:36:16.900Z,101004.97
2022-12-20T20:38:45.711Z,101001.31
2022-12-20T20:41:13.998Z,100999.88
2022-12-20T20:43:42.169Z,101003.84
2022-12-20T20:46:12.549Z,101009.81
2022-12-20T20:48:41.331Z,101003.09
2022-12-20T20:51:09.605Z,100999.00
2022-12-20T20:53:39.426Z,101002.00
2022-12-20T20:56:08.420Z,101000.38
2022-12-20T20:58:37.004Z,100994.91
2022-12-20T21:01:08.532Z,101004.97
2022-12-20T21:03:36.849Z,101005.34
2022-12-20T21:06:37.188Z,101011.03
2022-12-20T21:08:56.531Z,101008.16
2022-12-20T21:11:24.809Z,100993.50
2022-12-20T21:13:54.555Z,101004.97
2022-12-20T21:16:22.894Z,101006.78
2022-12-20T21:18:51.946Z,101009.88
2022-12-20T21:21:20.493Z,101011.47
2022-12-20T21:23:48.863Z,101017.47
2022-12-20T21:26:19.488Z,101024.88
2022-12-20T21:28:47.516Z,101024.88
2022-12-20T21:31:18.594Z,101011.09
2022-12-20T21:33:47.045Z,101016.72
2022-12-20T21:36:16.383Z,101020.56
2022-12-20T21:38:48.589Z,101020.22
2022-12-20T21:41:16.515Z,101014.69
2022-12-20T21:43:46.158Z,101012.13
2022-12-20T21:46:14.199Z,100996.66
2022-12-20T21:48:43.372Z,101005.97
2022-12-20T21:51:13.919Z,101004.47
2022-12-20T21:53:43.319Z,101002.28
2022-12-20T21:56:11.360Z,101002.41
2022-12-20T21:58:39.640Z,101010.16
2022-12-20T22:01:09.794Z,101014.66
2022-12-20T22:03:38.381Z,101019.81
2022-12-20T22:06:06.694Z,101019.94
2022-12-20T22:08:35.381Z,101014.75
2022-12-20T22:11:05.294Z,101007.09
2022-12-20T22:13:40.664Z,101014.53
2022-12-20T22:16:13.127Z,101008.38
2022-12-20T22:18:41.967Z,101022.69
2022-12-20T22:21:11.719Z,101012.69
2022-12-20T22:23:39.953Z,101011.69
2022-12-20T22:26:10.819Z,101010.00
2022-12-20T22:28:38.904Z,101025.09
2022-12-20T22:31:12.042Z,101013.09
2022-12-20T22:33:40.124Z,101018.72
2022-12-20T22:36:09.150Z,101008.09
2022-12-20T22:38:37.165Z,101020.44
2022-12-20T22:41:09.660Z,101016.22
2022-12-20T22:43:37.986Z,101012.88
2022-12-20T22:46:06.275Z,101014.16
2022-12-20T22:48:35.652Z,101016.38
2022-12-20T22:51:05.473Z,101025.97
2022-12-20T22:53:33.915Z,101030.31
2022-12-20T22:56:02.080Z,101022.28
2022-12-20T22:58:30.597Z,101021.91
2022-12-20T23:00:58.919Z,101017.09
2022-12-20T23:03:27.480Z,101023.72
2022-12-20T23:05:57.799Z,101009.13
2022-12-20T23:08:28.032Z,101013.94
2022-12-20T23:11:13.315Z,101011.16
2022-12-20T23:13:59.232Z,101009.78
2022-12-20T23:16:27.477Z,101013.78
2022-12-20T23:18:55.731Z,101013.78
2022-12-20T23:21:42.970Z,101010.00
2022-12-20T23:24:11.283Z,101014.97
2022-12-20T23:26:40.121Z,101013.06
2022-12-20T23:29:08.897Z,101008.25
2022-12-20T23:31:36.953Z,101004.66
2022-12-20T23:34:05.126Z,101006.66
2022-12-20T23:36:34.582Z,101004.03
2022-12-20T23:39:03.006Z,101019.53
2022-12-20T23:41:30.896Z,101019.47
2022-12-20T23:43:58.933Z,101018.97
2022-12-20T23:46:27.251Z,101028.47
2022-12-20T23:48:55.334Z,101039.00
2022-12-20T23:51:23.307Z,101038.75
2022-12-20T23:53:53.229Z,101037.63
2022-12-20T23:56:22.402Z,101031.47
2022-12-20T23:58:54.394Z,101036.34
